createdAt,value
2022-08-18T00:00:15.308Z,18.70
2022-08-18T00:03:01.154Z,18.62
2022-08-18T00:05:43.428Z,18.58
2022-08-18T00:08:13.976Z,18.53
2022-08-18T00:10:44.661Z,18.57
2022-08-18T00:13:14.752Z,18.47
2022-08-18T00:15:49.341Z,18.47
2022-08-18T00:18:19.828Z,18.39
2022-08-18T00:20:52.586Z,18.35
2022-08-18T00:23:23.471Z,18.30
2022-08-18T00:25:53.517Z,18.32
2022-08-18T00:28:24.099Z,18.37
2022-08-18T00:30:54.472Z,18.52
2022-08-18T00:33:25.068Z,18.60
2022-08-18T00:35:57.835Z,18.58
2022-08-18T00:38:27.908Z,18.64
2022-08-18T00:40:59.780Z,18.47
2022-08-18T00:43:42.604Z,18.34
2022-08-18T00:46:19.498Z,18.26
2022-08-18T00:48:50.405Z,18.29
2022-08-18T00:51:32.816Z,18.27
2022-08-18T00:54:11.688Z,18.23
2022-08-18T00:56:47.624Z,18.19
2022-08-18T00:59:26.639Z,18.18
2022-08-18T01:02:02.615Z,18.30
2022-08-18T01:04:42.281Z,18.40
2022-08-18T01:07:23.435Z,18.47
2022-08-18T01:09:55.054Z,18.38
2022-08-18T01:12:44.301Z,18.27
2022-08-18T01:15:28.824Z,18.25
2022-08-18T01:18:14.796Z,18.09
2022-08-18T01:21:07.015Z,18.02
2022-08-18T01:23:41.227Z,18.07
2022-08-18T01:26:09.533Z,17.96
2022-08-18T01:28:44.699Z,17.93
2022-08-18T01:31:32.811Z,17.88
2022-08-18T01:34:03.492Z,17.96
2022-08-18T01:36:37.479Z,18.07
2022-08-18T01:39:15.637Z,18.22
2022-08-18T01:42:05.656Z,18.07
2022-08-18T01:44:35.709Z,18.09
2022-08-18T01:47:06.513Z,18.05
2022-08-18T01:49:36.529Z,17.98
2022-08-18T01:52:08.272Z,17.87
2022-08-18T01:54:41.168Z,17.89
2022-08-18T01:57:14.595Z,18.03
2022-08-18T01:59:45.857Z,18.19
2022-08-18T02:02:24.387Z,18.20
2022-08-18T02:04:58.453Z,18.35
2022-08-18T02:07:35.993Z,18.48
2022-08-18T02:10:12.631Z,18.41
2022-08-18T02:12:46.888Z,18.34
2022-08-18T02:15:17.123Z,18.28
2022-08-18T02:17:49.459Z,18.29
2022-08-18T02:20:21.929Z,18.21
2022-08-18T02:22:52.953Z,18.16
2022-08-18T02:25:25.869Z,18.18
2022-08-18T02:27:55.873Z,18.14
2022-08-18T02:30:26.082Z,18.14
2022-08-18T02:32:56.728Z,18.20
2022-08-18T02:35:27.170Z,18.23
2022-08-18T02:37:57.167Z,18.19
2022-08-18T02:40:34.059Z,18.21
2022-08-18T02:43:10.126Z,18.28
2022-08-18T02:45:40.876Z,18.22
2022-08-18T02:48:10.841Z,18.25
2022-08-18T02:50:47.668Z,18.22
2022-08-18T02:53:23.741Z,18.13
2022-08-18T02:55:56.305Z,18.25
2022-08-18T02:58:30.439Z,18.25
2022-08-18T03:01:03.216Z,18.23
2022-08-18T03:03:33.167Z,18.26
2022-08-18T03:06:03.340Z,18.18
2022-08-18T03:08:33.534Z,18.07
2022-08-18T03:11:06.130Z,18.02
2022-08-18T03:13:36.175Z,18.07
2022-08-18T03:16:07.513Z,18.06
2022-08-18T03:18:37.842Z,18.01
2022-08-18T03:21:10.363Z,17.96
2022-08-18T03:23:41.796Z,17.96
2022-08-18T03:26:19.358Z,18.05
2022-08-18T03:28:52.563Z,18.14
2022-08-18T03:31:28.103Z,18.23
2022-08-18T03:33:59.886Z,18.07
2022-08-18T03:36:36.922Z,18.00
2022-08-18T03:39:10.869Z,17.94
2022-08-18T03:41:58.107Z,17.90
2022-08-18T03:44:31.325Z,17.80
2022-08-18T03:47:03.802Z,17.75
2022-08-18T03:49:34.287Z,17.78
2022-08-18T03:52:05.584Z,17.84
2022-08-18T03:54:36.396Z,17.71
2022-08-18T03:57:12.646Z,17.60
2022-08-18T03:59:44.231Z,17.56
2022-08-18T04:02:15.482Z,17.51
2022-08-18T04:04:45.468Z,17.39
2022-08-18T04:07:17.641Z,17.31
2022-08-18T04:09:48.112Z,17.10
2022-08-18T04:12:20.631Z,17.07
2022-08-18T04:14:53.562Z,17.27
2022-08-18T04:17:26.297Z,17.18
2022-08-18T04:19:57.766Z,17.15
2022-08-18T04:22:28.528Z,17.23
2022-08-18T04:24:58.513Z,17.11
2022-08-18T04:27:32.526Z,17.07
2022-08-18T04:30:03.511Z,17.01
2022-08-18T04:32:34.326Z,16.99
2022-08-18T04:35:04.630Z,17.03
2022-08-18T04:37:38.123Z,17.07
2022-08-18T04:40:14.756Z,17.10
2022-08-18T04:42:48.571Z,17.23
2022-08-18T04:45:18.760Z,17.28
2022-08-18T04:47:48.813Z,17.31
2022-08-18T04:50:19.044Z,17.40
2022-08-18T04:53:01.566Z,17.51
2022-08-18T04:55:31.933Z,17.98
2022-08-18T04:58:04.584Z,18.26
2022-08-18T05:00:34.576Z,18.07
2022-08-18T05:03:04.528Z,18.19
2022-08-18T05:05:34.528Z,18.33
2022-08-18T05:08:04.530Z,18.77
2022-08-18T05:10:34.741Z,19.22
2022-08-18T05:13:07.315Z,19.43
2022-08-18T05:15:59.311Z,19.35
2022-08-18T05:18:28.198Z,19.43
2022-08-18T05:21:01.312Z,19.70
2022-08-18T05:23:32.256Z,20.00
2022-08-18T05:26:04.905Z,20.52
2022-08-18T05:28:37.854Z,20.72
2022-08-18T05:31:13.970Z,21.07
2022-08-18T05:33:44.974Z,21.32
2022-08-18T05:36:46.670Z,21.32
2022-08-18T05:39:26.760Z,21.51
2022-08-18T05:42:06.399Z,21.70
2022-08-18T05:44:45.076Z,21.87
2022-08-18T05:47:19.829Z,21.83
2022-08-18T05:49:51.821Z,21.94
2022-08-18T05:52:30.108Z,22.17
2022-08-18T05:55:20.099Z,22.59
2022-08-18T05:57:56.537Z,22.78
2022-08-18T06:00:31.337Z,22.78
2022-08-18T06:03:09.921Z,22.89
2022-08-18T06:05:52.505Z,22.72
2022-08-18T06:08:28.241Z,22.71
2022-08-18T06:10:58.464Z,22.94
2022-08-18T06:13:28.565Z,22.83
2022-08-18T06:16:12.518Z,23.00
2022-08-18T06:18:53.325Z,22.99
2022-08-18T06:21:46.106Z,22.99
2022-08-18T06:24:31.527Z,22.83
2022-08-18T06:27:16.213Z,22.89
2022-08-18T06:30:10.991Z,23.00
2022-08-18T06:33:13.167Z,23.29
2022-08-18T06:35:52.206Z,23.40
2022-08-18T06:38:45.759Z,23.81
2022-08-18T06:41:41.524Z,24.13
2022-08-18T06:44:19.056Z,24.62
2022-08-18T06:46:56.948Z,24.96
2022-08-18T06:49:41.757Z,24.74
2022-08-18T06:52:24.678Z,24.85
2022-08-18T06:54:56.593Z,24.99
2022-08-18T06:57:34.962Z,25.04
2022-08-18T07:00:13.141Z,24.89
2022-08-18T07:02:54.276Z,24.86
2022-08-18T07:05:31.722Z,24.82
2022-08-18T07:08:18.810Z,24.45
2022-08-18T07:10:53.459Z,24.35
2022-08-18T07:13:31.602Z,24.59
2022-08-18T07:16:40.306Z,24.69
2022-08-18T07:19:15.772Z,24.61
2022-08-18T07:21:49.979Z,24.82
2022-08-18T07:24:30.531Z,24.95
2022-08-18T07:27:04.179Z,24.93
2022-08-18T07:29:37.649Z,24.91
2022-08-18T07:32:21.085Z,25.11
2022-08-18T07:34:58.309Z,25.13
2022-08-18T07:37:37.928Z,24.88
2022-08-18T07:40:23.740Z,24.35
2022-08-18T07:43:02.558Z,24.13
2022-08-18T07:45:44.039Z,23.95
2022-08-18T07:48:37.477Z,23.58
2022-08-18T07:51:23.643Z,23.03
2022-08-18T07:54:25.349Z,23.05
2022-08-18T07:57:19.703Z,23.29
2022-08-18T08:00:00.657Z,23.52
2022-08-18T08:02:50.492Z,23.27
2022-08-18T08:05:42.233Z,23.32
2022-08-18T08:08:25.843Z,23.18
2022-08-18T08:11:16.903Z,23.25
2022-08-18T08:14:04.257Z,23.18
2022-08-18T08:16:47.245Z,23.18
2022-08-18T08:20:01.299Z,23.22
2022-08-18T08:22:41.245Z,22.79
2022-08-18T08:25:45.054Z,22.13
2022-08-18T08:28:31.337Z,21.61
2022-08-18T08:31:35.435Z,21.93
2022-08-18T08:34:15.513Z,22.14
2022-08-18T08:36:50.343Z,22.25
2022-08-18T08:39:38.509Z,22.35
2022-08-18T08:42:30.345Z,22.85
2022-08-18T08:45:12.811Z,23.37
2022-08-18T08:47:58.309Z,24.10
2022-08-18T08:50:39.016Z,24.40
2022-08-18T08:53:20.281Z,24.68
2022-08-18T08:56:00.110Z,24.91
2022-08-18T08:58:42.777Z,25.40
2022-08-18T09:01:37.986Z,26.84
2022-08-18T09:04:30.451Z,27.65
2022-08-18T09:07:21.841Z,28.55
2022-08-18T09:10:27.974Z,28.38
2022-08-18T09:13:19.630Z,28.19
2022-08-18T09:16:23.295Z,27.73
2022-08-18T09:19:19.707Z,26.83
2022-08-18T09:22:01.505Z,26.69
2022-08-18T09:24:42.110Z,27.60
2022-08-18T09:27:29.559Z,28.08
2022-08-18T09:30:03.554Z,28.44
2022-08-18T09:32:55.378Z,29.40
2022-08-18T09:35:52.005Z,30.26
2022-08-18T09:41:45.730Z,32.74
2022-08-18T09:44:57.662Z,33.77
2022-08-18T09:47:58.964Z,33.15
2022-08-18T09:50:57.734Z,32.08
2022-08-18T09:53:54.997Z,30.19
2022-08-18T09:56:57.213Z,29.50
2022-08-18T10:00:24.418Z,27.39
2022-08-18T10:03:31.048Z,28.25
2022-08-18T10:06:23.917Z,29.12
2022-08-18T10:09:36.522Z,30.28
2022-08-18T10:12:40.759Z,31.69
2022-08-18T10:15:39.439Z,32.18
2022-08-18T10:18:39.545Z,32.01
2022-08-18T10:21:31.311Z,31.48
2022-08-18T10:24:36.950Z,31.01
2022-08-18T10:27:14.410Z,32.00
2022-08-18T10:30:00.257Z,31.69
2022-08-18T10:32:54.156Z,29.79
2022-08-18T10:39:07.022Z,30.68
2022-08-18T10:41:48.198Z,31.01
2022-08-18T10:47:25.056Z,30.80
2022-08-18T10:50:11.905Z,31.30
2022-08-18T10:53:24.798Z,31.55
2022-08-18T10:56:06.221Z,30.87
2022-08-18T10:59:28.787Z,32.06
2022-08-18T11:02:26.757Z,31.30
2022-08-18T11:04:59.976Z,32.01
2022-08-18T11:07:35.541Z,32.21
2022-08-18T11:10:30.595Z,32.52
2022-08-18T11:13:14.843Z,32.79
2022-08-18T11:16:03.051Z,33.49
2022-08-18T11:18:43.289Z,31.72
2022-08-18T11:21:33.103Z,30.55
2022-08-18T11:24:14.548Z,29.74
2022-08-18T11:26:53.118Z,30.35
2022-08-18T11:29:35.188Z,30.57
2022-08-18T11:32:11.910Z,29.16
2022-08-18T11:34:53.121Z,29.07
2022-08-18T11:37:48.779Z,29.57
2022-08-18T11:41:08.815Z,31.14
2022-08-18T11:43:41.282Z,31.62
2022-08-18T11:46:32.190Z,32.97
2022-08-18T11:49:16.463Z,34.69
2022-08-18T11:52:03.253Z,35.00
2022-08-18T11:54:50.267Z,32.54
2022-08-18T11:57:46.785Z,31.03
2022-08-18T12:00:57.321Z,31.93
2022-08-18T12:03:49.122Z,31.31
2022-08-18T12:06:29.923Z,30.30
2022-08-18T12:09:05.537Z,29.83
2022-08-18T12:11:42.726Z,29.30
2022-08-18T12:14:29.753Z,29.22
2022-08-18T12:17:03.371Z,28.77
2022-08-18T12:19:36.415Z,29.70
2022-08-18T12:22:21.170Z,31.27
2022-08-18T12:24:52.257Z,31.66
2022-08-18T12:27:26.061Z,31.35
2022-08-18T12:30:03.765Z,30.98
2022-08-18T12:32:47.042Z,30.24
2022-08-18T12:35:23.039Z,29.46
2022-08-18T12:38:00.432Z,29.01
2022-08-18T12:40:47.202Z,28.13
2022-08-18T12:43:17.422Z,27.96
2022-08-18T12:45:47.758Z,27.69
2022-08-18T12:48:17.879Z,27.95
2022-08-18T12:50:58.552Z,27.97
2022-08-18T12:53:58.230Z,28.70
2022-08-18T12:56:26.316Z,29.25
2022-08-18T12:58:56.951Z,28.73
2022-08-18T13:01:28.512Z,28.14
2022-08-18T13:04:12.495Z,28.38
2022-08-18T13:06:59.565Z,28.55
2022-08-18T13:09:34.593Z,29.53
2022-08-18T13:12:19.809Z,30.28
2022-08-18T13:14:51.661Z,29.89
2022-08-18T13:17:30.432Z,30.88
2022-08-18T13:20:13.552Z,31.83
2022-08-18T13:22:46.901Z,32.92
2022-08-18T13:25:28.882Z,32.89
2022-08-18T13:28:03.352Z,32.00
2022-08-18T13:30:35.607Z,31.51
2022-08-18T13:33:34.457Z,32.20
2022-08-18T13:35:58.023Z,32.96
2022-08-18T13:38:31.285Z,33.31
2022-08-18T13:41:06.260Z,32.87
2022-08-18T13:43:43.191Z,33.13
2022-08-18T13:46:17.333Z,33.52
2022-08-18T13:48:48.472Z,31.58
2022-08-18T13:51:26.999Z,31.33
2022-08-18T13:54:26.581Z,32.17
2022-08-18T13:56:51.771Z,31.74
2022-08-18T13:59:23.815Z,31.83
2022-08-18T14:01:54.918Z,31.08
2022-08-18T14:04:27.964Z,30.87
2022-08-18T14:07:03.291Z,30.77
2022-08-18T14:09:39.990Z,31.22
2022-08-18T14:12:22.740Z,31.19
2022-08-18T14:14:56.879Z,31.43
2022-08-18T14:17:28.699Z,31.93
2022-08-18T14:20:15.302Z,31.90
2022-08-18T14:23:06.584Z,30.72
2022-08-18T14:25:52.254Z,30.03
2022-08-18T14:28:24.908Z,30.34
2022-08-18T14:30:56.105Z,30.48
2022-08-18T14:33:51.146Z,30.62
2022-08-18T14:36:29.806Z,31.22
2022-08-18T14:39:00.819Z,31.69
2022-08-18T14:41:35.621Z,32.33
2022-08-18T14:44:15.345Z,33.11
2022-08-18T14:46:53.914Z,32.51
2022-08-18T14:49:28.315Z,31.74
2022-08-18T14:52:00.311Z,31.61
2022-08-18T14:54:32.733Z,31.33
2022-08-18T14:57:11.393Z,30.82
2022-08-18T14:59:41.806Z,30.78
2022-08-18T15:02:15.248Z,30.23
2022-08-18T15:04:55.943Z,30.26
2022-08-18T15:07:28.327Z,30.75
2022-08-18T15:10:15.684Z,30.92
2022-08-18T15:12:49.409Z,31.08
2022-08-18T15:15:22.646Z,31.34
2022-08-18T15:17:53.338Z,31.39
2022-08-18T15:20:29.754Z,31.33
2022-08-18T15:23:17.264Z,30.60
2022-08-18T15:25:50.992Z,30.24
2022-08-18T15:28:27.529Z,30.05
2022-08-18T15:33:50.083Z,29.31
2022-08-18T15:36:29.246Z,29.33
2022-08-18T15:38:59.979Z,29.06
2022-08-18T15:41:35.717Z,29.12
2022-08-18T15:44:20.853Z,28.67
2022-08-18T15:46:53.600Z,28.43
2022-08-18T15:49:24.402Z,28.10
2022-08-18T15:51:54.527Z,28.13
2022-08-18T15:54:25.324Z,27.77
2022-08-18T15:56:58.304Z,27.34
2022-08-18T15:59:33.194Z,27.36
2022-08-18T16:02:11.852Z,27.44
2022-08-18T16:04:43.085Z,27.91
2022-08-18T16:07:18.051Z,28.02
2022-08-18T16:10:08.393Z,28.14
2022-08-18T16:12:45.665Z,27.63
2022-08-18T16:15:21.542Z,27.33
2022-08-18T16:17:53.520Z,27.60
2022-08-18T16:20:26.330Z,27.56
2022-08-18T16:22:57.719Z,27.39
2022-08-18T16:25:29.101Z,27.28
2022-08-18T16:28:02.287Z,27.27
2022-08-18T16:30:35.369Z,27.33
2022-08-18T16:33:08.546Z,27.55
2022-08-18T16:35:39.921Z,27.23
2022-08-18T16:38:15.379Z,27.17
2022-08-18T16:40:45.418Z,27.04
2022-08-18T16:43:15.742Z,26.88
2022-08-18T16:45:48.691Z,26.73
2022-08-18T16:48:21.968Z,26.95
2022-08-18T16:50:52.725Z,26.77
2022-08-18T16:53:22.793Z,26.72
2022-08-18T16:55:53.208Z,26.78
2022-08-18T16:58:35.704Z,26.72
2022-08-18T17:01:21.103Z,26.68
2022-08-18T17:04:13.529Z,26.55
2022-08-18T17:06:47.636Z,26.40
2022-08-18T17:09:19.094Z,26.13
2022-08-18T17:11:51.954Z,26.16
2022-08-18T17:14:23.757Z,26.12
2022-08-18T17:16:58.648Z,26.05
2022-08-18T17:19:34.593Z,25.83
2022-08-18T17:22:06.693Z,25.71
2022-08-18T17:24:37.705Z,25.50
2022-08-18T17:27:26.497Z,25.27
2022-08-18T17:30:07.657Z,25.21
2022-08-18T17:32:49.313Z,25.07
2022-08-18T17:35:28.807Z,24.81
2022-08-18T17:38:04.871Z,24.77
2022-08-18T17:40:42.868Z,24.60
2022-08-18T17:43:18.290Z,24.58
2022-08-18T17:45:56.123Z,24.47
2022-08-18T17:48:35.226Z,24.42
2022-08-18T17:51:25.875Z,24.44
2022-08-18T17:54:01.360Z,24.36
2022-08-18T17:56:40.859Z,24.23
2022-08-18T17:59:46.063Z,24.13
2022-08-18T18:02:28.741Z,24.06
2022-08-18T18:05:05.447Z,23.97
2022-08-18T18:07:41.624Z,23.94
2022-08-18T18:10:16.281Z,23.89
2022-08-18T18:12:46.786Z,23.84
2022-08-18T18:15:17.463Z,23.78
2022-08-18T18:17:48.731Z,23.80
2022-08-18T18:20:42.031Z,23.71
2022-08-18T18:23:20.586Z,23.69
2022-08-18T18:25:52.025Z,23.70
2022-08-18T18:28:33.289Z,23.58
2022-08-18T18:31:25.125Z,23.61
2022-08-18T18:34:03.225Z,23.54
2022-08-18T18:36:45.333Z,23.49
2022-08-18T18:39:33.210Z,23.45
2022-08-18T18:42:19.461Z,23.46
2022-08-18T18:44:56.529Z,23.40
2022-08-18T18:47:50.468Z,23.32
2022-08-18T18:50:38.273Z,23.30
2022-08-18T18:53:44.969Z,23.24
2022-08-18T18:56:31.873Z,23.21
2022-08-18T18:59:35.231Z,23.21
2022-08-18T19:02:33.660Z,23.14
2022-08-18T19:05:20.374Z,23.16
2022-08-18T19:08:13.217Z,23.13
2022-08-18T19:10:59.535Z,23.01
2022-08-18T19:13:35.566Z,23.02
2022-08-18T19:16:23.862Z,22.96
2022-08-18T19:19:35.752Z,22.97
2022-08-18T19:22:06.716Z,22.85
2022-08-18T19:24:48.110Z,22.84
2022-08-18T19:27:32.017Z,22.80
2022-08-18T19:30:09.696Z,22.79
2022-08-18T19:32:47.724Z,22.84
2022-08-18T19:35:23.126Z,22.76
2022-08-18T19:38:06.239Z,22.73
2022-08-18T19:40:48.627Z,22.73
2022-08-18T19:43:30.061Z,22.71
2022-08-18T19:46:13.379Z,22.73
2022-08-18T19:48:55.081Z,22.68
2022-08-18T19:51:35.257Z,22.63
2022-08-18T19:54:40.435Z,22.67
2022-08-18T19:57:37.706Z,22.72
2022-08-18T20:00:42.136Z,22.63
2022-08-18T20:04:01.729Z,22.56
2022-08-18T20:07:22.559Z,22.52
2022-08-18T20:10:24.547Z,22.51
2022-08-18T20:13:19.385Z,22.50
2022-08-18T20:16:44.011Z,22.44
2022-08-18T20:19:48.245Z,22.45
2022-08-18T20:22:42.394Z,22.42
2022-08-18T20:25:47.091Z,22.38
2022-08-18T20:28:36.414Z,22.40
2022-08-18T20:31:18.809Z,22.39
2022-08-18T20:34:14.014Z,22.37
2022-08-18T20:36:47.005Z,22.42
2022-08-18T20:39:52.515Z,22.35
2022-08-18T20:42:56.371Z,22.35
2022-08-18T20:45:45.822Z,22.33
2022-08-18T20:48:38.038Z,22.38
2022-08-18T20:51:14.062Z,22.29
2022-08-18T20:54:13.595Z,22.33
2022-08-18T20:56:52.419Z,22.23
2022-08-18T20:59:27.348Z,22.21
2022-08-18T21:02:01.482Z,22.30
2022-08-18T21:04:51.111Z,22.21
2022-08-18T21:07:36.190Z,22.28
2022-08-18T21:10:16.637Z,22.19
2022-08-18T21:12:54.763Z,22.18
2022-08-18T21:15:29.057Z,22.19
2022-08-18T21:18:05.279Z,22.16
2022-08-18T21:20:38.412Z,22.25
2022-08-18T21:23:15.761Z,22.20
2022-08-18T21:25:56.723Z,22.26
2022-08-18T21:28:31.414Z,22.20
2022-08-18T21:31:43.259Z,22.06
2022-08-18T21:33:58.251Z,22.18
2022-08-18T21:36:32.790Z,22.12
2022-08-18T21:39:11.174Z,22.06
2022-08-18T21:41:48.946Z,22.16
2022-08-18T21:44:24.330Z,22.20
2022-08-18T21:47:09.633Z,22.36
2022-08-18T21:49:39.617Z,22.38
2022-08-18T21:52:12.213Z,22.36
2022-08-18T21:54:46.713Z,22.29
2022-08-18T21:57:27.414Z,22.27
2022-08-18T22:00:20.406Z,22.36
2022-08-18T22:02:52.220Z,22.27
2022-08-18T22:05:58.753Z,22.17
2022-08-18T22:08:29.179Z,22.01
2022-08-18T22:12:01.938Z,21.98
2022-08-18T22:14:54.306Z,21.98
2022-08-18T22:17:34.458Z,21.90
2022-08-18T22:20:36.009Z,21.91
2022-08-18T22:23:34.850Z,21.93
2022-08-18T22:26:26.185Z,21.88
2022-08-18T22:29:13.488Z,21.84
2022-08-18T22:31:46.870Z,21.65
2022-08-18T22:34:27.016Z,21.63
2022-08-18T22:37:02.221Z,21.63
2022-08-18T22:39:36.491Z,21.68
2022-08-18T22:42:10.837Z,21.67
2022-08-18T22:44:41.131Z,21.61
2022-08-18T22:47:11.898Z,21.58
2022-08-18T22:49:45.214Z,21.54
2022-08-18T22:52:22.422Z,21.53
2022-08-18T22:55:05.286Z,21.65
2022-08-18T22:57:40.947Z,21.59
2022-08-18T23:00:18.137Z,21.58
2022-08-18T23:02:48.889Z,21.48
2022-08-18T23:05:19.027Z,21.47
2022-08-18T23:07:49.022Z,21.43
2022-08-18T23:10:19.537Z,21.47
2022-08-18T23:12:52.879Z,21.46
2022-08-18T23:15:38.816Z,21.43
2022-08-18T23:18:08.955Z,21.43
2022-08-18T23:20:39.663Z,21.52
2022-08-18T23:23:11.284Z,21.62
2022-08-18T23:25:42.250Z,21.61
2022-08-18T23:28:15.779Z,21.55
2022-08-18T23:30:46.475Z,21.41
2022-08-18T23:33:19.464Z,21.37
2022-08-18T23:35:50.379Z,21.43
2022-08-18T23:38:20.408Z,21.41
2022-08-18T23:40:55.645Z,21.42
2022-08-18T23:43:29.796Z,21.43
2022-08-18T23:45:59.941Z,21.39
2022-08-18T23:48:29.946Z,21.37
2022-08-18T23:51:03.107Z,21.19
2022-08-18T23:53:34.109Z,20.95
2022-08-18T23:56:06.141Z,20.50
2022-08-18T23:58:38.654Z,20.09
